CPX966 Details

Departure: Ramstein Air Force Base (ETAR)
Arrival: Liège Airport (EBLG)
Route: TOLEY2N RUDOT GESLO GESLO4X
Notes: EMPTY | NON-REVENUE REPOSITIONING LEG


Current Weather Information
ETAR 252332Z AUTO 00000KT 9999 FEW019 SCT025 BKN055 04/02 A3035 RMK AO2 RAB11E21DZB21E22 SLP287 $
EBLG 252320Z 33006KT 9999 SCT018 BKN032 05/03 Q1031 NOSIG